Almira, Washington
Current Conditions -  °F | °C
As of 10:36 AM on Wednesday 26 Nov 2014 (Local Time) from KEPH Reporting Station
Overcast Overcast  
Wind Chill:   Ceiling: 500
Heat Index:   Visibility: 9mi
Dew Point:   Wind: 3mph
Humidity: 97%   Direction: 10°N
Pressure: 30.17"   Gusts: NA
Location:  47.71°N, 118.94°W
Report Text: KEPH 261836Z AUTO 01003KT 9SM OVC005 03/03 A3017 RMK AO2 T00330028
Loading
Personal Weather Stations






























Interactive Weather Map New forecast layout! Learn more

10-Day Weather Forecast

Advertisements
Track Severe Weather on mobile